Time;durP1;ratioP1;P1;durP2;ratioP2;P2;SDS_P1;SDS_P2;PMS_P1;PMS_P2;Temp;Humidity;BMP_temperature;BMP_pressure;BME280_temperature;BME280_humidity;BME280_pressure;Samples;Min_cycle;Max_cycle;Signal;HPM_P1;HPM_P2
2023/09/01 00:00:31;;;;;;;12.57;3.08;;;;;;;;;;5010947;27;95790;-61
2023/09/01 00:02:58;;;;;;;14.10;2.90;;;;;;;;;;5012347;27;92636;-61
2023/09/01 00:05:25;;;;;;;3.83;2.53;;;;;;;;;;5013345;27;93300;-61
2023/09/01 00:07:51;;;;;;;6.53;2.50;;;;;;;;;;5012794;27;93403;-61
2023/09/01 00:10:19;;;;;;;6.72;3.15;;;;;;;;;;5017595;27;92380;-61
2023/09/01 00:12:46;;;;;;;5.70;2.40;;;;;;;;;;5015105;27;93702;-61
2023/09/01 00:15:12;;;;;;;6.07;2.58;;;;;;;;;;5012078;27;92489;-61
2023/09/01 00:17:39;;;;;;;6.57;2.63;;;;;;;;;;5017572;27;93124;-61
2023/09/01 00:20:05;;;;;;;3.58;2.33;;;;;;;;;;5013221;27;93466;-61
2023/09/01 00:22:32;;;;;;;11.57;2.80;;;;;;;;;;5012542;27;92766;-61
2023/09/01 00:24:58;;;;;;;7.25;2.88;;;;;;;;;;5010868;27;94966;-61
2023/09/01 00:27:25;;;;;;;11.18;2.83;;;;;;;;;;5012131;27;93512;-61
2023/09/01 00:29:51;;;;;;;6.13;2.83;;;;;;;;;;5017465;27;92526;-61
2023/09/01 00:32:17;;;;;;;6.88;3.00;;;;;;;;;;5015079;27;93086;-61
2023/09/01 00:34:44;;;;;;;10.35;2.97;;;;;;;;;;5012037;27;92472;-61
2023/09/01 00:37:10;;;;;;;7.40;3.05;;;;;;;;;;5026088;27;94109;-61
2023/09/01 00:39:36;;;;;;;8.75;3.30;;;;;;;;;;5012710;27;94796;-61
2023/09/01 00:42:03;;;;;;;8.20;3.50;;;;;;;;;;5013563;27;91829;-61
2023/09/01 00:44:29;;;;;;;11.73;3.50;;;;;;;;;;5015032;27;92933;-61
2023/09/01 00:46:56;;;;;;;11.32;3.63;;;;;;;;;;5018639;27;94423;-61
2023/09/01 00:49:22;;;;;;;7.20;3.92;;;;;;;;;;5014515;27;94856;-61
2023/09/01 00:51:48;;;;;;;10.73;3.67;;;;;;;;;;5015483;27;95495;-60
2023/09/01 00:54:15;;;;;;;9.80;3.67;;;;;;;;;;5020443;27;93406;-61
2023/09/01 00:56:42;;;;;;;10.23;4.07;;;;;;;;;;5016203;27;92872;-61
2023/09/01 00:59:08;;;;;;;9.07;3.83;;;;;;;;;;5019849;27;93460;-61
2023/09/01 01:01:35;;;;;;;7.10;4.05;;;;;;;;;;5015539;27;92621;-61
2023/09/01 01:04:02;;;;;;;13.35;3.83;;;;;;;;;;5015084;27;93520;-60
2023/09/01 01:06:47;;;;;;;10.30;3.30;;;;;;;;;;5020078;27;92603;-60
2023/09/01 01:09:26;;;;;;;12.30;3.70;;;;;;;;;;5015458;27;92550;-61
2023/09/01 01:11:58;;;;;;;7.00;2.95;;;;;;;;;;5015854;27;93506;-61
2023/09/01 01:14:36;;;;;;;6.30;3.40;;;;;;;;;;5013186;27;96834;-61
2023/09/01 01:17:05;;;;;;;8.35;3.20;;;;;;;;;;5021481;27;92542;-61
2023/09/01 01:19:31;;;;;;;12.55;3.58;;;;;;;;;;5031775;28;95045;-61
2023/09/01 01:21:59;;;;;;;8.10;3.45;;;;;;;;;;5015366;27;92523;-61
2023/09/01 01:24:25;;;;;;;9.05;3.00;;;;;;;;;;5015290;27;93074;-61
2023/09/01 01:26:55;;;;;;;6.70;3.22;;;;;;;;;;5025620;27;94183;-61
2023/09/01 01:29:22;;;;;;;4.50;3.20;;;;;;;;;;5022140;27;92353;-61
2023/09/01 01:31:49;;;;;;;8.20;3.42;;;;;;;;;;5015761;27;93096;-61
2023/09/01 01:34:23;;;;;;;3.03;2.65;;;;;;;;;;5014415;27;93474;-61
2023/09/01 01:37:00;;;;;;;3.90;3.03;;;;;;;;;;5016093;27;92537;-61
2023/09/01 01:39:28;;;;;;;9.00;3.35;;;;;;;;;;5017794;27;95008;-61
2023/09/01 01:41:55;;;;;;;4.25;3.15;;;;;;;;;;5015135;27;92670;-61
2023/09/01 01:44:26;;;;;;;7.82;3.97;;;;;;;;;;5014943;27;93111;-60
2023/09/01 01:46:52;;;;;;;4.18;3.40;;;;;;;;;;5016529;27;93349;-61
2023/09/01 01:49:19;;;;;;;10.55;3.25;;;;;;;;;;5018960;27;92572;-61
2023/09/01 01:51:46;;;;;;;8.98;3.47;;;;;;;;;;5014946;27;93242;-61
2023/09/01 01:54:12;;;;;;;8.55;3.42;;;;;;;;;;5021574;27;93319;-61
2023/09/01 01:56:39;;;;;;;7.88;4.10;;;;;;;;;;5019770;27;91788;-60
2023/09/01 01:59:05;;;;;;;6.80;3.03;;;;;;;;;;5019028;27;93367;-60
2023/09/01 02:01:32;;;;;;;5.85;3.75;;;;;;;;;;5015108;27;92403;-61
2023/09/01 02:03:58;;;;;;;5.00;3.20;;;;;;;;;;5011904;27;94791;-61
2023/09/01 02:06:25;;;;;;;8.30;3.65;;;;;;;;;;5020545;27;93770;-61
2023/09/01 02:08:51;;;;;;;13.30;3.75;;;;;;;;;;5017349;27;92589;-61
2023/09/01 02:11:17;;;;;;;5.78;2.97;;;;;;;;;;5018312;27;93198;-62
2023/09/01 02:13:44;;;;;;;12.73;3.72;;;;;;;;;;5018380;27;92560;-62
2023/09/01 02:16:10;;;;;;;6.63;3.58;;;;;;;;;;5017411;27;92524;-62
2023/09/01 02:18:36;;;;;;;5.43;3.15;;;;;;;;;;5014935;27;94161;-62
2023/09/01 02:21:05;;;;;;;3.90;2.95;;;;;;;;;;5017998;27;93765;-62
2023/09/01 02:23:31;;;;;;;7.38;3.85;;;;;;;;;;5014784;27;92546;-61
2023/09/01 02:25:57;;;;;;;7.50;3.70;;;;;;;;;;5013868;27;92596;-62
2023/09/01 02:28:24;;;;;;;6.93;3.13;;;;;;;;;;5016263;27;95040;-61
2023/09/01 02:30:51;;;;;;;8.27;3.70;;;;;;;;;;5014343;27;95507;-60
2023/09/01 02:33:20;;;;;;;6.32;3.35;;;;;;;;;;5013572;27;93926;-62
2023/09/01 02:35:46;;;;;;;5.28;3.08;;;;;;;;;;5014591;27;92432;-62
2023/09/01 02:38:13;;;;;;;6.35;3.17;;;;;;;;;;5013119;27;93308;-62
2023/09/01 02:40:40;;;;;;;6.25;3.20;;;;;;;;;;5013931;27;94469;-62
2023/09/01 02:43:06;;;;;;;10.55;3.67;;;;;;;;;;5021344;27;92538;-62
2023/09/01 02:45:33;;;;;;;7.38;3.28;;;;;;;;;;5014269;27;92694;-63
2023/09/01 02:47:59;;;;;;;10.50;4.03;;;;;;;;;;5016415;27;92772;-63
2023/09/01 02:50:25;;;;;;;6.45;3.30;;;;;;;;;;5013555;27;92414;-62
2023/09/01 02:52:52;;;;;;;5.97;3.35;;;;;;;;;;5012535;27;95848;-62
2023/09/01 02:55:18;;;;;;;6.88;3.53;;;;;;;;;;5013910;27;92458;-62
2023/09/01 02:57:45;;;;;;;8.23;3.40;;;;;;;;;;5017216;27;94112;-62
2023/09/01 03:00:15;;;;;;;9.73;3.60;;;;;;;;;;5012583;27;93456;-62
2023/09/01 03:02:42;;;;;;;9.50;4.22;;;;;;;;;;5013219;27;92570;-62
2023/09/01 03:05:10;;;;;;;14.70;4.63;;;;;;;;;;5019933;27;93124;-61
2023/09/01 03:07:37;;;;;;;12.95;4.90;;;;;;;;;;5018751;27;92558;-62
2023/09/01 03:10:07;;;;;;;12.55;5.10;;;;;;;;;;5018755;27;93161;-62
2023/09/01 03:12:37;;;;;;;17.45;5.57;;;;;;;;;;5013580;27;92384;-62
2023/09/01 03:15:05;;;;;;;21.85;6.35;;;;;;;;;;5013523;27;92308;-62
2023/09/01 03:17:31;;;;;;;13.60;6.63;;;;;;;;;;5019123;27;95075;-63
2023/09/01 03:19:58;;;;;;;10.98;6.47;;;;;;;;;;5017782;27;93465;-62
2023/09/01 03:22:24;;;;;;;13.95;6.68;;;;;;;;;;5013839;27;92594;-62
2023/09/01 03:24:51;;;;;;;12.63;5.82;;;;;;;;;;5017585;27;92792;-62
2023/09/01 03:27:17;;;;;;;14.40;6.68;;;;;;;;;;5015811;27;94487;-62
2023/09/01 03:29:44;;;;;;;15.60;6.20;;;;;;;;;;5014041;27;93149;-62
2023/09/01 03:32:10;;;;;;;14.57;6.90;;;;;;;;;;5013144;27;93259;-62
2023/09/01 03:34:37;;;;;;;10.88;6.60;;;;;;;;;;5017381;27;91614;-61
2023/09/01 03:37:03;;;;;;;15.90;7.50;;;;;;;;;;5012366;27;92755;-61
2023/09/01 03:39:30;;;;;;;18.50;7.95;;;;;;;;;;5013448;27;94558;-62
2023/09/01 03:41:56;;;;;;;14.98;6.70;;;;;;;;;;5011023;27;94940;-62
2023/09/01 03:44:23;;;;;;;18.50;7.05;;;;;;;;;;5012680;27;95838;-62
2023/09/01 03:46:49;;;;;;;14.43;6.95;;;;;;;;;;5024538;27;93428;-62
2023/09/01 03:49:15;;;;;;;19.60;7.25;;;;;;;;;;5020107;27;92303;-61
2023/09/01 03:51:42;;;;;;;13.43;6.60;;;;;;;;;;5013235;27;93564;-63
2023/09/01 03:54:08;;;;;;;18.85;7.40;;;;;;;;;;5012857;27;92583;-63
2023/09/01 03:56:34;;;;;;;14.18;7.32;;;;;;;;;;5011964;27;93205;-62
2023/09/01 03:59:01;;;;;;;20.02;7.93;;;;;;;;;;5014937;27;92710;-62
2023/09/01 04:01:27;;;;;;;13.05;6.45;;;;;;;;;;5021102;27;92564;-62
2023/09/01 04:03:53;;;;;;;13.82;6.03;;;;;;;;;;5017002;27;93077;-62
2023/09/01 04:06:20;;;;;;;14.70;6.28;;;;;;;;;;5011161;28;95812;-62
2023/09/01 04:08:46;;;;;;;19.95;7.32;;;;;;;;;;5020412;27;92606;-62
2023/09/01 04:11:12;;;;;;;12.65;6.63;;;;;;;;;;5012291;27;93359;-62
2023/09/01 04:13:39;;;;;;;15.32;7.28;;;;;;;;;;5011910;27;92547;-62
2023/09/01 04:16:05;;;;;;;16.40;6.85;;;;;;;;;;5013605;27;93119;-62
2023/09/01 04:18:32;;;;;;;16.40;7.28;;;;;;;;;;5017364;27;93409;-62
2023/09/01 04:20:58;;;;;;;16.80;7.10;;;;;;;;;;5016120;27;92572;-62
2023/09/01 04:23:25;;;;;;;13.85;7.25;;;;;;;;;;5024170;27;93109;-62
2023/09/01 04:25:51;;;;;;;12.43;6.30;;;;;;;;;;5016242;27;93464;-62
2023/09/01 04:28:18;;;;;;;21.33;7.90;;;;;;;;;;5016169;27;92583;-62
2023/09/01 04:30:45;;;;;;;18.27;6.45;;;;;;;;;;5020468;27;94770;-62
2023/09/01 04:33:12;;;;;;;18.13;6.47;;;;;;;;;;5016242;27;92744;-62
2023/09/01 04:35:39;;;;;;;12.45;6.65;;;;;;;;;;5018637;27;93148;-62
2023/09/01 04:38:05;;;;;;;12.82;5.85;;;;;;;;;;5021384;27;93213;-62
2023/09/01 04:40:32;;;;;;;11.55;6.40;;;;;;;;;;5015433;27;92556;-62
2023/09/01 04:42:58;;;;;;;14.25;6.90;;;;;;;;;;5015768;27;94182;-62
2023/09/01 04:45:24;;;;;;;13.23;7.00;;;;;;;;;;5016332;27;94410;-61
2023/09/01 04:47:51;;;;;;;13.50;6.45;;;;;;;;;;5020286;27;91704;-61
2023/09/01 04:50:18;;;;;;;13.60;6.63;;;;;;;;;;5020925;27;93148;-61
2023/09/01 04:52:44;;;;;;;20.05;7.07;;;;;;;;;;5022586;27;93326;-62
2023/09/01 04:55:10;;;;;;;13.68;6.68;;;;;;;;;;5014378;27;95074;-61
2023/09/01 04:57:37;;;;;;;13.80;7.00;;;;;;;;;;5015370;27;94780;-62
2023/09/01 05:00:15;;;;;;;15.02;6.75;;;;;;;;;;5024708;27;92363;-61
2023/09/01 05:02:45;;;;;;;21.10;7.93;;;;;;;;;;5021769;27;93360;-62
2023/09/01 05:05:12;;;;;;;11.43;6.60;;;;;;;;;;5015999;27;94745;-62
2023/09/01 05:07:38;;;;;;;15.82;7.30;;;;;;;;;;5028527;27;93627;-62
2023/09/01 05:10:05;;;;;;;16.17;7.30;;;;;;;;;;5019509;27;93110;-61
2023/09/01 05:12:32;;;;;;;13.90;7.53;;;;;;;;;;5014858;27;92725;-62
2023/09/01 05:14:59;;;;;;;19.25;7.13;;;;;;;;;;5018079;27;92588;-61
2023/09/01 05:17:25;;;;;;;13.52;6.93;;;;;;;;;;5018770;27;93296;-62
2023/09/01 05:19:53;;;;;;;14.93;7.20;;;;;;;;;;5013821;27;95328;-61
2023/09/01 05:22:19;;;;;;;15.27;7.30;;;;;;;;;;5020213;27;96394;-62
2023/09/01 05:24:47;;;;;;;15.68;7.40;;;;;;;;;;5015286;27;94078;-61
2023/09/01 05:27:13;;;;;;;19.70;7.55;;;;;;;;;;5014324;27;92639;-61
2023/09/01 05:29:40;;;;;;;19.17;7.28;;;;;;;;;;5016965;27;94226;-61
2023/09/01 05:32:06;;;;;;;18.95;6.95;;;;;;;;;;5016832;27;92556;-61
2023/09/01 05:34:32;;;;;;;11.90;7.20;;;;;;;;;;5018829;27;92585;-61
2023/09/01 05:36:59;;;;;;;12.45;7.10;;;;;;;;;;5018248;27;94308;-61
2023/09/01 05:39:25;;;;;;;15.40;7.10;;;;;;;;;;5015498;27;92458;-61
2023/09/01 05:41:51;;;;;;;25.58;7.78;;;;;;;;;;5019129;27;93136;-61
2023/09/01 05:44:20;;;;;;;17.08;7.45;;;;;;;;;;5013014;27;96290;-61
2023/09/01 05:46:46;;;;;;;15.07;7.05;;;;;;;;;;5019210;27;92594;-61
2023/09/01 05:49:12;;;;;;;12.68;6.80;;;;;;;;;;5018684;27;93216;-61
2023/09/01 05:51:39;;;;;;;16.83;8.00;;;;;;;;;;5014299;27;93494;-61
2023/09/01 05:54:05;;;;;;;20.65;8.77;;;;;;;;;;5013931;27;92560;-61
2023/09/01 05:56:32;;;;;;;21.05;8.82;;;;;;;;;;5017735;27;93242;-60
2023/09/01 05:58:58;;;;;;;20.92;8.30;;;;;;;;;;5013066;27;92532;-61
2023/09/01 06:01:25;;;;;;;11.23;7.38;;;;;;;;;;5014830;27;93428;-61
2023/09/01 06:03:51;;;;;;;14.05;8.00;;;;;;;;;;5021076;27;93461;-61
2023/09/01 06:06:18;;;;;;;19.40;8.52;;;;;;;;;;5015040;27;92578;-60
2023/09/01 06:08:44;;;;;;;19.73;8.43;;;;;;;;;;5012296;27;94985;-61
2023/09/01 06:11:12;;;;;;;16.45;8.75;;;;;;;;;;5016841;27;93512;-61
2023/09/01 06:13:39;;;;;;;15.20;7.68;;;;;;;;;;5015836;27;92697;-60
2023/09/01 06:16:06;;;;;;;15.75;7.70;;;;;;;;;;5015183;27;92353;-61
2023/09/01 06:18:32;;;;;;;15.43;7.43;;;;;;;;;;5020019;27;93743;-60
2023/09/01 06:20:59;;;;;;;16.48;7.65;;;;;;;;;;5014588;27;94344;-61
2023/09/01 06:23:25;;;;;;;19.40;7.90;;;;;;;;;;5017840;27;93296;-61
2023/09/01 06:25:51;;;;;;;17.83;7.65;;;;;;;;;;5014377;27;91862;-61
2023/09/01 06:28:18;;;;;;;15.25;7.30;;;;;;;;;;5027588;27;93416;-61
2023/09/01 06:30:44;;;;;;;17.77;7.82;;;;;;;;;;5016213;27;93281;-61
2023/09/01 06:33:10;;;;;;;15.60;7.32;;;;;;;;;;5013723;27;95224;-61
2023/09/01 06:35:37;;;;;;;19.27;7.22;;;;;;;;;;5017631;27;95620;-61
2023/09/01 06:38:06;;;;;;;12.95;6.80;;;;;;;;;;5014209;27;93556;-61
2023/09/01 06:40:33;;;;;;;20.67;7.75;;;;;;;;;;5015651;27;92827;-61
2023/09/01 06:42:59;;;;;;;18.02;7.10;;;;;;;;;;5013649;27;94437;-61
2023/09/01 06:45:25;;;;;;;14.07;6.80;;;;;;;;;;5014567;27;92399;-61
2023/09/01 06:47:55;;;;;;;30.90;7.32;;;;;;;;;;5021978;27;94289;-61
2023/09/01 06:50:22;;;;;;;18.27;6.88;;;;;;;;;;5014326;27;94160;-61
2023/09/01 06:52:48;;;;;;;13.15;6.93;;;;;;;;;;5013458;27;92424;-60
2023/09/01 06:55:15;;;;;;;17.80;7.25;;;;;;;;;;5013822;27;93379;-60
2023/09/01 06:57:41;;;;;;;13.63;6.93;;;;;;;;;;5012111;27;95814;-60
2023/09/01 07:00:09;;;;;;;14.10;6.70;;;;;;;;;;5015634;27;92540;-61
2023/09/01 07:02:35;;;;;;;14.50;6.68;;;;;;;;;;5016901;27;93163;-60
2023/09/01 07:05:03;;;;;;;17.63;6.68;;;;;;;;;;5017943;27;92409;-59
2023/09/01 07:07:29;;;;;;;14.77;7.22;;;;;;;;;;5013254;27;93168;-60
2023/09/01 07:09:55;;;;;;;17.73;6.97;;;;;;;;;;5014042;27;94422;-61
2023/09/01 07:12:22;;;;;;;12.82;6.65;;;;;;;;;;5013371;27;92607;-60
2023/09/01 07:14:48;;;;;;;11.18;6.28;;;;;;;;;;5013100;27;93191;-62
2023/09/01 07:17:19;;;;;;;12.05;6.25;;;;;;;;;;5025038;27;93735;-60
2023/09/01 07:19:45;;;;;;;15.43;6.20;;;;;;;;;;5012838;27;92364;-59
2023/09/01 07:22:12;;;;;;;14.73;6.47;;;;;;;;;;5012428;27;95031;-61
2023/09/01 07:24:39;;;;;;;13.93;6.03;;;;;;;;;;5016073;27;93360;-61
2023/09/01 07:27:06;;;;;;;9.43;5.88;;;;;;;;;;5017424;27;93498;-61
2023/09/01 07:29:33;;;;;;;10.48;6.30;;;;;;;;;;5016876;27;93470;-61
2023/09/01 07:31:59;;;;;;;13.13;6.15;;;;;;;;;;5017084;27;92330;-62
2023/09/01 07:34:26;;;;;;;12.88;5.80;;;;;;;;;;5016564;27;93633;-61
2023/09/01 07:36:52;;;;;;;15.90;6.40;;;;;;;;;;5012908;27;93222;-61
2023/09/01 07:39:19;;;;;;;12.60;5.97;;;;;;;;;;5017175;27;91690;-61
2023/09/01 07:41:45;;;;;;;16.35;6.57;;;;;;;;;;5010882;27;92601;-61
2023/09/01 07:44:16;;;;;;;17.95;6.57;;;;;;;;;;5013059;27;94505;-61
2023/09/01 07:46:42;;;;;;;17.90;6.30;;;;;;;;;;5015595;27;94865;-61
2023/09/01 07:49:09;;;;;;;15.20;6.20;;;;;;;;;;5021151;27;94264;-61
2023/09/01 07:51:35;;;;;;;15.75;5.60;;;;;;;;;;5015759;27;92409;-61
2023/09/01 07:54:02;;;;;;;20.15;6.88;;;;;;;;;;5017018;27;93600;-61
2023/09/01 07:56:28;;;;;;;14.18;6.20;;;;;;;;;;5013153;27;94471;-61
2023/09/01 07:58:55;;;;;;;11.15;5.72;;;;;;;;;;5018912;27;92573;-62
2023/09/01 08:01:21;;;;;;;16.13;5.82;;;;;;;;;;5013381;27;93411;-60
2023/09/01 08:03:48;;;;;;;15.38;5.65;;;;;;;;;;5013520;27;92754;-60
2023/09/01 08:06:14;;;;;;;12.48;5.53;;;;;;;;;;5020213;27;92415;-62
2023/09/01 08:08:41;;;;;;;10.65;5.70;;;;;;;;;;5016274;27;93468;-60
2023/09/01 08:11:07;;;;;;;13.70;5.50;;;;;;;;;;5010594;27;94867;-60
2023/09/01 08:13:33;;;;;;;13.32;5.78;;;;;;;;;;5017285;27;96135;-60
2023/09/01 08:16:00;;;;;;;10.10;5.40;;;;;;;;;;5013350;27;94410;-60
2023/09/01 08:18:26;;;;;;;9.93;5.03;;;;;;;;;;5012881;27;92529;-60
2023/09/01 08:20:53;;;;;;;11.60;5.18;;;;;;;;;;5021756;27;94348;-60
2023/09/01 08:23:21;;;;;;;14.23;5.57;;;;;;;;;;5012217;27;93793;-59
2023/09/01 08:25:48;;;;;;;12.35;6.38;;;;;;;;;;5016307;27;92420;-60
2023/09/01 08:28:14;;;;;;;15.10;7.03;;;;;;;;;;5016025;27;93157;-60
2023/09/01 08:30:41;;;;;;;13.63;6.38;;;;;;;;;;5012138;27;92516;-60
2023/09/01 08:33:08;;;;;;;20.65;6.70;;;;;;;;;;5011830;27;93331;-60
2023/09/01 08:35:35;;;;;;;16.90;7.15;;;;;;;;;;5010311;27;96055;-60
2023/09/01 08:38:01;;;;;;;17.95;6.65;;;;;;;;;;5012797;27;92405;-60
2023/09/01 08:40:27;;;;;;;18.13;6.60;;;;;;;;;;5012193;27;93475;-60
2023/09/01 08:42:56;;;;;;;13.77;6.82;;;;;;;;;;5015203;27;93425;-60
2023/09/01 08:45:22;;;;;;;21.33;7.32;;;;;;;;;;5012175;27;92522;-60
2023/09/01 08:47:49;;;;;;;14.70;7.40;;;;;;;;;;5013335;27;93082;-60
2023/09/01 08:50:17;;;;;;;15.32;7.50;;;;;;;;;;5016747;27;93374;-60
2023/09/01 08:52:45;;;;;;;14.13;6.60;;;;;;;;;;5014586;27;93387;-60
2023/09/01 08:55:12;;;;;;;16.05;7.40;;;;;;;;;;5013277;27;93416;-60
2023/09/01 08:57:39;;;;;;;15.27;6.80;;;;;;;;;;5018835;27;92480;-60
2023/09/01 09:00:07;;;;;;;12.38;6.50;;;;;;;;;;5014410;27;95013;-60
2023/09/01 09:02:43;;;;;;;20.05;7.00;;;;;;;;;;5011980;27;93613;-60
2023/09/01 09:05:30;;;;;;;13.60;6.70;;;;;;;;;;5015406;27;92536;-60
2023/09/01 09:08:01;;;;;;;13.15;7.25;;;;;;;;;;5015681;27;93150;-59
2023/09/01 09:10:38;;;;;;;16.65;7.50;;;;;;;;;;5015867;27;94386;-60
2023/09/01 09:13:19;;;;;;;12.40;6.57;;;;;;;;;;5022394;27;92458;-60
2023/09/01 09:15:45;;;;;;;13.68;7.22;;;;;;;;;;5027021;27;93391;-60
2023/09/01 09:18:27;;;;;;;14.57;7.15;;;;;;;;;;5026009;27;91840;-60
2023/09/01 09:20:54;;;;;;;14.30;7.00;;;;;;;;;;5014727;27;92614;-60
2023/09/01 09:23:20;;;;;;;13.00;6.40;;;;;;;;;;5020594;27;93526;-60
2023/09/01 09:25:49;;;;;;;18.55;6.97;;;;;;;;;;5015928;27;95300;-60
2023/09/01 09:28:18;;;;;;;20.00;7.47;;;;;;;;;;5014569;27;95543;-61
2023/09/01 09:30:49;;;;;;;24.10;8.75;;;;;;;;;;5014530;27;93412;-61
2023/09/01 09:33:15;;;;;;;;;;;;;;;;;;5015138;27;92551;-62
2023/09/01 09:35:48;;;;;;;20.13;8.18;;;;;;;;;;5017828;27;123228;-60
2023/09/01 09:38:14;;;;;;;15.20;7.10;;;;;;;;;;5017252;27;92524;-60
2023/09/01 09:40:41;;;;;;;11.15;6.75;;;;;;;;;;5024361;27;94217;-60
2023/09/01 09:43:09;;;;;;;14.82;6.32;;;;;;;;;;5015504;27;95487;-60
2023/09/01 09:45:38;;;;;;;16.80;7.18;;;;;;;;;;5014940;27;92429;-61
2023/09/01 09:48:05;;;;;;;17.13;7.10;;;;;;;;;;5021179;27;92450;-60
2023/09/01 09:50:32;;;;;;;13.77;6.85;;;;;;;;;;5017079;27;96887;-61
2023/09/01 09:53:00;;;;;;;13.23;5.82;;;;;;;;;;5019284;27;92634;-60
2023/09/01 09:55:27;;;;;;;12.98;7.15;;;;;;;;;;5014997;27;93213;-60
2023/09/01 09:57:59;;;;;;;15.95;6.88;;;;;;;;;;5019999;27;93390;-61
2023/09/01 10:00:26;;;;;;;11.38;6.07;;;;;;;;;;5015712;27;93151;-63
2023/09/01 10:02:55;;;;;;;11.13;6.20;;;;;;;;;;5017705;27;93654;-60
2023/09/01 10:05:22;;;;;;;10.68;6.45;;;;;;;;;;5013747;27;92432;-61
2023/09/01 10:07:49;;;;;;;13.80;6.28;;;;;;;;;;5015762;27;94265;-60
2023/09/01 10:10:15;;;;;;;18.30;6.80;;;;;;;;;;5014193;27;92651;-61
2023/09/01 10:12:42;;;;;;;14.07;6.28;;;;;;;;;;5014537;27;92702;-61
2023/09/01 10:15:13;;;;;;;10.57;5.40;;;;;;;;;;5015596;27;94841;-60
2023/09/01 10:17:40;;;;;;;14.07;6.03;;;;;;;;;;5019167;27;93428;-61
2023/09/01 10:20:07;;;;;;;16.45;6.45;;;;;;;;;;5014705;27;93136;-61
2023/09/01 10:22:38;;;;;;;18.63;6.03;;;;;;;;;;5014035;27;94697;-61
2023/09/01 10:25:10;;;;;;;12.82;6.07;;;;;;;;;;5014513;27;92484;-60
2023/09/01 10:27:37;;;;;;;10.23;5.53;;;;;;;;;;5018781;27;93156;-60
2023/09/01 10:30:38;;;;;;;9.05;5.20;;;;;;;;;;5017654;27;93739;-61
2023/09/01 10:33:11;;;;;;;11.70;5.45;;;;;;;;;;4972286;28;91888;-62
2023/09/01 10:35:40;;;;;;;13.95;5.22;;;;;;;;;;5010953;27;92431;-62
2023/09/01 10:38:13;;;;;;;11.23;4.70;;;;;;;;;;5014146;27;93978;-62
2023/09/01 10:40:41;;;;;;;16.23;6.00;;;;;;;;;;5019992;27;95166;-61
2023/09/01 10:43:07;;;;;;;13.07;5.57;;;;;;;;;;5013882;27;93477;-61
2023/09/01 10:45:35;;;;;;;13.35;6.43;;;;;;;;;;5013956;27;92569;-61
2023/09/01 10:48:03;;;;;;;16.45;6.32;;;;;;;;;;5016352;27;94227;-61
2023/09/01 10:50:32;;;;;;;14.25;5.68;;;;;;;;;;5013349;27;92374;-61
2023/09/01 10:53:29;;;;;;;10.52;6.60;;;;;;;;;;5013663;27;92422;-60
2023/09/01 10:56:08;;;;;;;8.23;5.15;;;;;;;;;;4996761;27;93116;-60
2023/09/01 10:58:39;;;;;;;8.77;5.07;;;;;;;;;;5014128;27;92768;-61
2023/09/01 11:01:25;;;;;;;9.65;5.65;;;;;;;;;;5013183;27;93463;-60
2023/09/01 11:03:52;;;;;;;18.70;5.55;;;;;;;;;;5016868;27;92607;-61
2023/09/01 11:06:20;;;;;;;10.88;5.90;;;;;;;;;;5012313;27;95438;-61
2023/09/01 11:08:59;;;;;;;14.40;5.57;;;;;;;;;;5022298;27;95524;-61
2023/09/01 11:11:26;;;;;;;8.88;5.50;;;;;;;;;;5011832;27;93441;-60
2023/09/01 11:13:54;;;;;;;12.07;5.88;;;;;;;;;;5013300;27;92479;-60
2023/09/01 11:16:20;;;;;;;11.35;5.90;;;;;;;;;;5015559;27;93116;-61
2023/09/01 11:18:57;;;;;;;15.02;6.70;;;;;;;;;;5012193;27;93517;-60
2023/09/01 11:21:24;;;;;;;11.73;5.57;;;;;;;;;;5013869;27;92369;-61
2023/09/01 11:23:55;;;;;;;11.15;6.07;;;;;;;;;;5013485;27;94229;-61
2023/09/01 11:26:22;;;;;;;9.68;5.85;;;;;;;;;;5016145;27;96934;-61
2023/09/01 11:28:49;;;;;;;9.73;5.63;;;;;;;;;;5017490;27;93606;-61
2023/09/01 11:31:15;;;;;;;11.95;6.28;;;;;;;;;;5015557;27;96798;-60
2023/09/01 11:33:50;;;;;;;8.52;5.65;;;;;;;;;;5013051;27;92374;-61
2023/09/01 11:36:17;;;;;;;9.20;5.78;;;;;;;;;;5015561;27;93087;-61
2023/09/01 11:38:44;;;;;;;11.27;5.72;;;;;;;;;;5013569;27;93408;-61
2023/09/01 11:41:12;;;;;;;11.18;6.05;;;;;;;;;;5013510;27;92437;-61
2023/09/01 11:43:40;;;;;;;12.18;6.38;;;;;;;;;;5017127;27;93161;-60
2023/09/01 11:46:07;;;;;;;10.27;5.13;;;;;;;;;;5012831;27;93467;-60
2023/09/01 11:48:33;;;;;;;7.85;5.57;;;;;;;;;;5017933;27;91823;-60
2023/09/01 11:51:00;;;;;;;9.38;5.20;;;;;;;;;;5023507;27;93584;-60
2023/09/01 11:53:32;;;;;;;9.95;5.10;;;;;;;;;;5016141;27;92315;-61
2023/09/01 11:56:00;;;;;;;16.65;5.60;;;;;;;;;;5023899;27;96563;-61
2023/09/01 11:58:32;;;;;;;8.63;5.03;;;;;;;;;;5015200;27;94450;-61
2023/09/01 12:01:12;;;;;;;11.38;5.30;;;;;;;;;;5013156;27;92486;-61
2023/09/01 12:03:43;;;;;;;7.50;5.33;;;;;;;;;;5011968;27;93172;-60
2023/09/01 12:06:15;;;;;;;7.22;4.82;;;;;;;;;;5017040;27;93386;-60
2023/09/01 12:08:42;;;;;;;10.90;5.70;;;;;;;;;;5012639;27;92556;-61
2023/09/01 12:11:09;;;;;;;7.50;4.93;;;;;;;;;;5015631;27;93165;-61
2023/09/01 12:13:35;;;;;;;9.25;5.15;;;;;;;;;;5013491;27;91817;-60
2023/09/01 12:16:02;;;;;;;8.52;4.43;;;;;;;;;;5013672;27;92667;-61
2023/09/01 12:18:29;;;;;;;10.55;5.40;;;;;;;;;;5013831;27;94469;-61
2023/09/01 12:20:56;;;;;;;10.55;5.20;;;;;;;;;;5011817;27;94837;-61
2023/09/01 12:23:29;;;;;;;9.23;5.03;;;;;;;;;;5013215;27;95856;-61
2023/09/01 12:25:56;;;;;;;10.30;4.78;;;;;;;;;;5014695;27;93416;-60
2023/09/01 12:28:24;;;;;;;7.63;4.80;;;;;;;;;;5016733;27;92507;-60
2023/09/01 12:30:51;;;;;;;11.02;4.63;;;;;;;;;;5015974;27;93061;-61
2023/09/01 12:33:17;;;;;;;11.57;5.40;;;;;;;;;;5012633;27;92482;-60
2023/09/01 12:35:44;;;;;;;7.78;4.80;;;;;;;;;;5012312;27;93094;-60
2023/09/01 12:38:10;;;;;;;10.95;5.25;;;;;;;;;;5020892;27;92610;-61
2023/09/01 12:40:37;;;;;;;12.05;5.25;;;;;;;;;;5017185;27;92871;-61
2023/09/01 12:43:03;;;;;;;16.92;5.88;;;;;;;;;;5019401;27;93160;-61
2023/09/01 12:45:30;;;;;;;10.43;5.68;;;;;;;;;;5013517;27;96800;-61
2023/09/01 12:47:56;;;;;;;10.40;5.60;;;;;;;;;;5018848;27;92460;-61
2023/09/01 12:50:23;;;;;;;11.27;5.80;;;;;;;;;;5020385;27;94073;-62
2023/09/01 12:52:50;;;;;;;10.10;5.68;;;;;;;;;;5018352;27;93902;-61
2023/09/01 12:55:16;;;;;;;10.73;5.80;;;;;;;;;;5015488;27;93323;-61
2023/09/01 12:57:42;;;;;;;9.77;5.65;;;;;;;;;;5016622;27;94405;-61
2023/09/01 13:00:09;;;;;;;9.43;5.30;;;;;;;;;;5016022;27;92525;-62
2023/09/01 13:02:36;;;;;;;8.80;5.15;;;;;;;;;;5015622;27;93363;-61
2023/09/01 13:05:02;;;;;;;7.97;4.95;;;;;;;;;;5019682;27;92292;-61
2023/09/01 13:07:29;;;;;;;11.10;5.95;;;;;;;;;;5015386;27;93041;-61
2023/09/01 13:09:55;;;;;;;6.50;5.13;;;;;;;;;;5013349;27;95112;-61
2023/09/01 13:12:22;;;;;;;7.85;5.22;;;;;;;;;;5014516;27;93384;-61
2023/09/01 13:14:48;;;;;;;11.65;6.00;;;;;;;;;;5022962;27;92536;-61
2023/09/01 13:17:15;;;;;;;8.07;5.63;;;;;;;;;;5022556;27;93381;-61
2023/09/01 13:19:41;;;;;;;12.70;5.82;;;;;;;;;;5015299;27;92581;-61
2023/09/01 13:22:07;;;;;;;6.40;5.28;;;;;;;;;;5014733;27;93132;-61
2023/09/01 13:24:34;;;;;;;12.60;5.55;;;;;;;;;;5015628;27;94475;-61
2023/09/01 13:27:00;;;;;;;12.05;6.03;;;;;;;;;;5015665;27;91631;-61
2023/09/01 13:29:26;;;;;;;7.47;5.50;;;;;;;;;;5015108;27;92464;-61
2023/09/01 13:31:53;;;;;;;7.78;5.80;;;;;;;;;;5018687;27;93437;-62
2023/09/01 13:34:19;;;;;;;10.07;5.18;;;;;;;;;;5013990;27;94749;-62
2023/09/01 13:36:45;;;;;;;10.27;5.97;;;;;;;;;;5018248;27;96597;-63
2023/09/01 13:39:12;;;;;;;11.88;6.00;;;;;;;;;;5017463;27;92815;-62
2023/09/01 13:41:38;;;;;;;10.73;6.43;;;;;;;;;;5014274;27;92542;-62
2023/09/01 13:44:05;;;;;;;14.07;6.30;;;;;;;;;;5014883;27;92431;-62
2023/09/01 13:46:31;;;;;;;9.02;5.78;;;;;;;;;;5018103;27;92482;-61
2023/09/01 13:48:59;;;;;;;9.20;5.97;;;;;;;;;;5018267;27;92399;-62
2023/09/01 13:51:26;;;;;;;8.45;6.00;;;;;;;;;;5014670;27;92597;-61
2023/09/01 13:53:56;;;;;;;10.82;5.90;;;;;;;;;;5014122;27;92433;-62
2023/09/01 13:56:23;;;;;;;11.63;6.40;;;;;;;;;;5014714;27;94710;-60
2023/09/01 13:58:49;;;;;;;9.95;6.55;;;;;;;;;;5017463;27;96791;-61
2023/09/01 14:01:15;;;;;;;9.55;6.28;;;;;;;;;;5014712;27;95927;-62
2023/09/01 14:03:42;;;;;;;8.43;6.32;;;;;;;;;;5014607;27;94604;-62
2023/09/01 14:06:09;;;;;;;9.18;6.63;;;;;;;;;;5014297;27;92720;-61
2023/09/01 14:08:35;;;;;;;6.63;5.72;;;;;;;;;;5015079;27;94176;-62
2023/09/01 14:11:02;;;;;;;10.77;6.20;;;;;;;;;;5022415;27;93417;-62
2023/09/01 14:13:28;;;;;;;7.25;6.22;;;;;;;;;;5014374;27;92577;-62
2023/09/01 14:15:56;;;;;;;8.82;5.85;;;;;;;;;;5014972;27;93124;-62
2023/09/01 14:18:23;;;;;;;8.05;5.70;;;;;;;;;;5017305;27;94398;-62
2023/09/01 14:20:52;;;;;;;8.23;6.18;;;;;;;;;;5017563;27;92330;-62
2023/09/01 14:23:20;;;;;;;9.73;5.57;;;;;;;;;;5012693;27;96867;-62
2023/09/01 14:25:47;;;;;;;6.97;5.45;;;;;;;;;;5014777;27;92398;-62
2023/09/01 14:28:14;;;;;;;7.72;5.57;;;;;;;;;;5014269;27;93472;-62
2023/09/01 14:30:40;;;;;;;7.93;4.68;;;;;;;;;;5013742;27;94386;-62
2023/09/01 14:33:07;;;;;;;7.72;5.43;;;;;;;;;;5014434;27;92559;-62
2023/09/01 14:35:47;;;;;;;6.13;5.53;;;;;;;;;;5014604;27;94121;-62